Neuburg — 5BQJ2 — position and weather

sailwx.info

Track history (hours):
 
Tides and Currents Weather Stations Pressure Air Temp Water Temp Dewpoint Dewpoint Depression Visibility Wind Speed Wind Dir Waves Ship Positions

Neuburg

Last reported at 2018-Aug-16 06:36 UTC. Time now 2018-Aug-16 20:19 UTC.
Position N 46°48' W 004°57'.

Length 142 m; draft 7.6 m.

Type: Cargo ship. MMSI: 212740000.

Date/timePositionNaut miles runAvg speedWind from/ knotsBaromVisibWave heightAir tempDewpointWater temp
2018-Aug-16 06:36N 46°48' W 004°57'142 9.0
2018-Aug-15 14:52N 49°10' W 005°08'711.6
2018-Aug-15 14:16N 49°13' W 004°59'6910.5
2018-Aug-15 07:43N 49°47' W 003°27'4 9.1
2018-Aug-15 07:16N 49°49' W 003°22'2 9.5
2018-Aug-15 07:00N 49°50' W 003°19'5 9.9
2018-Aug-15 06:31N 49°53' W 003°12'611.7
2018-Aug-15 06:00N 49°56' W 003°04'917.6
2018-Aug-15 05:30N 49°59' W 002°52'918.4
2018-Aug-15 05:00N 50°02' W 002°38'11616.0
2018-Aug-14 21:44N 50°34' E 000°17'314.3
2018-Aug-14 21:30N 50°35' E 000°22'715.0
2018-Aug-14 21:00N 50°37' E 000°33'816.0
2018-Aug-14 20:30N 50°42' E 000°43'816.9
2018-Aug-14 20:00N 50°47' E 000°54'917.0
2018-Aug-14 19:31N 50°52' E 001°04'816.8
2018-Aug-14 19:01N 50°58' E 001°15'816.0
2018-Aug-14 18:30N 51°03' E 001°24'815.3
2018-Aug-14 18:00N 51°08' E 001°33'714.4
2018-Aug-14 17:31N 51°12' E 001°42'714.2
2018-Aug-14 17:00N 51°18' E 001°49'714.0
2018-Aug-14 16:30N 51°24' E 001°54'713.9
2018-Aug-14 16:01N 51°29' E 002°02'714.1
2018-Aug-14 15:30N 51°35' E 002°09'714.2
2018-Aug-14 14:59N 51°40' E 002°18'4314.6
2018-Aug-14 12:00N 52°03' E 003°17'916.7
2018-Aug-14 11:29N 52°04' E 003°31'816.8
2018-Aug-14 11:01N 52°03' E 003°44'713.8
2018-Aug-14 10:30N 52°01' E 003°55'816.0
2018-Aug-14 10:00N 51°58' E 004°07'1111.1
2018-Aug-14 09:01N 51°54' E 004°24'1 2.5
2018-Aug-14 08:29N 51°53' E 004°25'0 0.0
2018-Aug-14 07:59N 51°53' E 004°25'0 0.0
2018-Aug-14 07:29N 51°53' E 004°25'0 0.0
2018-Aug-14 06:59N 51°53' E 004°25'0 0.0
2018-Aug-14 06:29N 51°53' E 004°25'0 0.0
2018-Aug-14 05:59N 51°53' E 004°25'0 0.0
2018-Aug-14 05:29N 51°53' E 004°25'0 0.0
2018-Aug-14 04:59N 51°53' E 004°25'0 0.0
2018-Aug-14 04:29N 51°53' E 004°25'0 0.0
2018-Aug-14 03:56N 51°53' E 004°25'0 0.0
2018-Aug-14 03:29N 51°53' E 004°25'0 0.0
2018-Aug-14 02:59N 51°53' E 004°25'0 0.0
2018-Aug-14 02:29N 51°53' E 004°25'0 0.0
2018-Aug-14 01:59N 51°53' E 004°25'0 0.0
2018-Aug-14 01:29N 51°53' E 004°25'0 0.0
2018-Aug-14 00:58N 51°53' E 004°25'0 0.0
2018-Aug-14 00:28N 51°53' E 004°25'0 0.0
2018-Aug-13 23:58N 51°53' E 004°25'0 0.0
2018-Aug-13 23:28N 51°53' E 004°25'0 0.0
2018-Aug-13 22:58N 51°53' E 004°25'0 0.0
2018-Aug-13 22:28N 51°53' E 004°25'0 0.0
2018-Aug-13 21:58N 51°53' E 004°25'0 0.0
2018-Aug-13 21:28N 51°53' E 004°25'0 0.0
2018-Aug-13 20:58N 51°53' E 004°25'0 0.0
2018-Aug-13 20:28N 51°53' E 004°25'0 0.0
2018-Aug-13 19:58N 51°53' E 004°25'0 0.0
2018-Aug-13 19:28N 51°53' E 004°25'0 0.0
2018-Aug-13 18:58N 51°53' E 004°25'0 0.0
2018-Aug-13 18:28N 51°53' E 004°25'0 0.0
2018-Aug-13 17:58N 51°53' E 004°25'0 0.0
2018-Aug-13 17:28N 51°53' E 004°25'0 0.0
2018-Aug-13 16:58N 51°53' E 004°25'0 0.0
2018-Aug-13 16:28N 51°53' E 004°25'0 0.0
2018-Aug-13 15:58N 51°53' E 004°25'0 0.0
2018-Aug-13 15:28N 51°53' E 004°25'0 0.0
2018-Aug-13 14:58N 51°53' E 004°25'0 0.0
2018-Aug-13 14:28N 51°53' E 004°25'0 0.0
2018-Aug-13 13:58N 51°53' E 004°25'0 0.0
2018-Aug-13 13:28N 51°53' E 004°25'0 0.0
2018-Aug-13 12:58N 51°53' E 004°25'0 0.0
2018-Aug-13 12:28N 51°53' E 004°25'0 0.0
2018-Aug-13 11:58N 51°53' E 004°25'0 0.0
2018-Aug-13 11:28N 51°53' E 004°25'0 0.0
2018-Aug-13 10:58N 51°53' E 004°25'0 0.0
2018-Aug-13 10:28N 51°53' E 004°25'0 0.0
2018-Aug-13 09:58N 51°53' E 004°25'0 0.0
2018-Aug-13 09:28N 51°53' E 004°25'0 0.0
2018-Aug-13 08:58N 51°53' E 004°25'0 0.0
2018-Aug-13 08:28N 51°53' E 004°25'0 0.0
2018-Aug-13 07:58N 51°53' E 004°25'0 0.0
2018-Aug-13 07:28N 51°53' E 004°25'0 0.0
2018-Aug-13 06:58N 51°53' E 004°25'0 0.0
2018-Aug-13 06:28N 51°53' E 004°25'0 0.0
2018-Aug-13 05:58N 51°53' E 004°25'0 0.0
2018-Aug-13 05:30N 51°53' E 004°25'1 2.2
2018-Aug-13 05:00N 51°53' E 004°24'4 7.7
2018-Aug-13 04:30N 51°54' E 004°18'511.0
2018-Aug-13 04:00N 51°57' E 004°11'713.3
2018-Aug-13 03:30N 51°60' E 004°01'917.9
2018-Aug-13 03:00N 51°60' E 003°46'4 7.4
2018-Aug-13 02:30N 51°58' E 003°41'714.1
2018-Aug-13 01:59N 51°56' E 003°29'1015.2
2018-Aug-13 01:22N 51°54' E 003°14'615.0
2018-Aug-13 00:58N 51°53' E 003°05'2014.1
2018-Aug-12 23:32N 51°52' E 002°32'113.7
2018-Aug-12 23:30N 51°52' E 002°32'713.6
2018-Aug-12 22:59N 51°49' E 002°21'714.0
2018-Aug-12 22:30N 51°45' E 002°12'713.8
2018-Aug-12 22:01N 51°41' E 002°04'714.0
2018-Aug-12 21:31N 51°36' E 001°55'713.9
2018-Aug-12 21:01N 51°32' E 001°46'713.6
2018-Aug-12 20:30N 51°29' E 001°37'611.6
2018-Aug-12 20:01N 51°25' E 001°29'714.2
2018-Aug-12 19:30N 51°29' E 001°19'815.6
2018-Aug-12 19:00N 51°29' E 001°07'816.0
2018-Aug-12 18:30N 51°29' E 000°54'917.7
2018-Aug-12 18:00N 51°30' E 000°40'816.0
2018-Aug-12 17:31N 51°28' E 000°27'5 9.2
2018-Aug-12 17:00N 51°27' E 000°20'0 0.3
2018-Aug-12 16:30N 51°27' E 000°20'0 0.0
2018-Aug-12 16:01N 51°27' E 000°20'0 0.0
2018-Aug-12 15:31N 51°27' E 000°20'0 0.0
2018-Aug-12 15:00N 51°27' E 000°20'0 0.0
2018-Aug-12 14:30N 51°27' E 000°20'0 0.0
2018-Aug-12 14:00N 51°27' E 000°20'0 0.0
2018-Aug-12 13:30N 51°27' E 000°20'0 0.0
2018-Aug-12 13:00N 51°27' E 000°20'0 0.0
2018-Aug-12 12:31N 51°27' E 000°20'0 0.0
2018-Aug-12 12:00N 51°27' E 000°20'0 0.0
2018-Aug-12 11:30N 51°27' E 000°20'0 0.0
2018-Aug-12 11:00N 51°27' E 000°20'0 0.0
2018-Aug-12 10:30N 51°27' E 000°20'0 0.0
2018-Aug-12 10:01N 51°27' E 000°20'0 0.0
2018-Aug-12 09:31N 51°27' E 000°20'0 0.0
2018-Aug-12 09:01N 51°27' E 000°20'0 0.0
2018-Aug-12 08:30N 51°27' E 000°20'0 0.0
2018-Aug-12 08:00N 51°27' E 000°20'0 0.0
2018-Aug-12 07:30N 51°27' E 000°20'0 0.0
2018-Aug-12 07:00N 51°27' E 000°20'0 0.0
2018-Aug-12 06:30N 51°27' E 000°20'0 0.3
2018-Aug-12 06:00N 51°27' E 000°20'3 5.8
2018-Aug-12 05:30N 51°27' E 000°25'4 8.3
2018-Aug-12 05:01N 51°30' E 000°29'5 9.9
2018-Aug-12 04:30N 51°30' E 000°37'611.4
2018-Aug-12 04:00N 51°29' E 000°46'713.1
2018-Aug-12 03:30N 51°29' E 000°57'612.3
2018-Aug-12 03:00N 51°30' E 001°07'612.4
2018-Aug-12 02:30N 51°29' E 001°17'714.9
2018-Aug-12 02:01N 51°28' E 001°28'510.8
2018-Aug-12 01:31N 51°23' E 001°34'611.7
2018-Aug-12 01:00N 51°18' E 001°38'713.4
2018-Aug-12 00:30N 51°12' E 001°40'611.7
2018-Aug-12 00:00N 51°06' E 001°40'714.6
2018-Aug-11 23:30N 50°60' E 001°33'714.5
2018-Aug-11 23:00N 50°53' E 001°27'5513.2
2018-Aug-11 18:50N 50°23' E 000°16'515.1
2018-Aug-11 18:30N 50°21' E 000°08'714.6
2018-Aug-11 18:00N 50°18' W 000°02'714.3
2018-Aug-11 17:30N 50°16' W 000°13'20415.0
2018-Aug-11 03:57N 48°59' W 005°05'4017.4
2018-Aug-11 01:38N 48°30' W 005°47'30416.6
2018-Aug-10 07:22N 43°44' W 003°19'616.7
2018-Aug-10 07:00N 43°39' W 003°15'816.4
2018-Aug-10 06:30N 43°31' W 003°11'816.5
2018-Aug-10 06:01N 43°24' W 003°06'4 7.9
2018-Aug-10 05:30N 43°21' W 003°03'0 0.0
2018-Aug-10 04:49N 43°21' W 003°03'0 0.0
2018-Aug-10 04:28N 43°21' W 003°03'0 0.0
2018-Aug-10 03:55N 43°21' W 003°03'0 0.0
2018-Aug-10 03:25N 43°21' W 003°03'0 0.0
2018-Aug-10 02:55N 43°21' W 003°03'0 0.0
2018-Aug-10 02:13N 43°21' W 003°03'0 0.0
2018-Aug-10 01:58N 43°21' W 003°03'0 0.0
2018-Aug-10 01:28N 43°21' W 003°03'0 0.0
2018-Aug-10 01:00N 43°21' W 003°03'0 0.0
2018-Aug-10 00:30N 43°21' W 003°03'0 0.0
2018-Aug-10 00:00N 43°21' W 003°03'0 0.0
2018-Aug-09 23:30N 43°21' W 003°03'0 0.0
2018-Aug-09 23:00N 43°21' W 003°03'0 0.0
2018-Aug-09 22:27N 43°21' W 003°03'0 0.0
2018-Aug-09 22:00N 43°21' W 003°03'0 0.0
2018-Aug-09 21:30N 43°21' W 003°03'0 0.0
2018-Aug-09 21:00N 43°21' W 003°03'0 0.0
2018-Aug-09 20:21N 43°21' W 003°03'0 0.0
2018-Aug-09 20:00N 43°21' W 003°03'0 0.0
2018-Aug-09 19:30N 43°21' W 003°03'0 0.0
2018-Aug-09 19:00N 43°21' W 003°03'0 0.0
2018-Aug-09 18:30N 43°21' W 003°03'0 0.0
2018-Aug-09 18:00N 43°21' W 003°03'0 0.0
2018-Aug-09 17:24N 43°21' W 003°03'0 0.0
2018-Aug-09 16:51N 43°21' W 003°03'0 0.0
2018-Aug-09 16:27N 43°21' W 003°03'0 0.0
2018-Aug-09 15:48N 43°21' W 003°03'0 0.0
2018-Aug-09 15:18N 43°21' W 003°03'0 0.0
2018-Aug-09 15:00N 43°21' W 003°03'0 0.0
2018-Aug-09 14:30N 43°21' W 003°03'0 0.0
2018-Aug-09 14:00N 43°21' W 003°03'0 0.0
2018-Aug-09 13:29N 43°21' W 003°03'0 0.0
2018-Aug-09 12:59N 43°21' W 003°03'0 0.0
2018-Aug-09 12:29N 43°21' W 003°03'0 0.0
2018-Aug-09 11:59N 43°21' W 003°03'0 0.0
2018-Aug-09 11:29N 43°21' W 003°03'0 0.0
2018-Aug-09 10:59N 43°21' W 003°03'0 0.0
2018-Aug-09 10:29N 43°21' W 003°03'0 0.0
2018-Aug-09 09:59N 43°21' W 003°03'0 0.0
2018-Aug-09 09:26N 43°21' W 003°03'0 0.0
2018-Aug-09 08:56N 43°21' W 003°03'0 0.0
2018-Aug-09 08:29N 43°21' W 003°03'0 0.0
2018-Aug-09 07:59N 43°21' W 003°03'0 0.0
2018-Aug-09 07:29N 43°21' W 003°03'0 0.0
2018-Aug-09 06:56N 43°21' W 003°03'0 0.0
2018-Aug-09 06:29N 43°21' W 003°03'0 0.0
2018-Aug-09 05:59N 43°21' W 003°03'0 0.0
2018-Aug-09 05:29N 43°21' W 003°03'0 0.0
2018-Aug-09 04:59N 43°21' W 003°03'0 0.0
2018-Aug-09 04:29N 43°21' W 003°03'0 0.0
2018-Aug-09 03:50N 43°21' W 003°03'0 0.8
2018-Aug-09 03:30N 43°21' W 003°03'3 5.8
2018-Aug-09 03:00N 43°23' W 003°05'815.2
2018-Aug-09 02:30N 43°30' W 003°09'816.6
2018-Aug-09 02:00N 43°38' W 003°13'36212.7
2018-Aug-07 21:28N 49°40' W 003°47'1616.9
2018-Aug-07 20:31N 49°48' W 003°26'117.0
2018-Aug-07 20:28N 49°48' W 003°25'816.8
2018-Aug-07 20:00N 49°52' W 003°14'816.6
2018-Aug-07 19:30N 49°56' W 003°03'816.1
2018-Aug-07 19:01N 50°00' W 002°53'815.4
2018-Aug-07 18:30N 50°02' W 002°41'4214.5
2018-Aug-07 15:38N 50°13' W 001°38'214.0
2018-Aug-07 15:28N 50°14' W 001°35'714.1
2018-Aug-07 15:00N 50°15' W 001°25'714.2
2018-Aug-07 14:30N 50°17' W 001°14'815.0
2018-Aug-07 14:00N 50°19' W 001°03'816.0
2018-Aug-07 13:30N 50°22' W 000°51'816.8
2018-Aug-07 13:00N 50°24' W 000°38'916.9
2018-Aug-07 12:30N 50°27' W 000°26'917.3
2018-Aug-07 12:00N 50°30' W 000°13'917.3
2018-Aug-07 11:30N 50°32' E 000°00'917.6
2018-Aug-07 11:00N 50°34' E 000°14'917.8
2018-Aug-07 10:30N 50°36' E 000°28'917.1
2018-Aug-07 10:00N 50°40' E 000°40'817.0
2018-Aug-07 09:30N 50°45' E 000°50'816.4
2018-Aug-07 09:00N 50°49' E 001°01'816.0
2018-Aug-07 08:30N 50°55' E 001°10'815.4
2018-Aug-07 08:00N 51°00' E 001°19'715.0
2018-Aug-07 07:30N 51°05' E 001°28'714.1
2018-Aug-07 07:00N 51°09' E 001°38'815.2
2018-Aug-07 06:30N 51°14' E 001°46'816.1
2018-Aug-07 06:00N 51°21' E 001°52'816.6
2018-Aug-07 05:30N 51°28' E 001°59'917.2
2018-Aug-07 05:01N 51°35' E 002°09'917.6
2018-Aug-07 04:30N 51°41' E 002°19'917.9
2018-Aug-07 04:00N 51°47' E 002°29'917.7
2018-Aug-07 03:30N 51°54' E 002°39'917.8
2018-Aug-07 03:00N 52°00' E 002°49'816.8
2018-Aug-07 02:30N 52°02' E 003°02'917.3
2018-Aug-07 02:00N 52°03' E 003°16'817.0
2018-Aug-07 01:30N 52°03' E 003°30'816.7
2018-Aug-07 01:00N 52°03' E 003°43'714.2
2018-Aug-07 00:30N 52°03' E 003°55'714.9
2018-Aug-07 00:00N 51°59' E 004°05'714.1
2018-Aug-06 23:30N 51°55' E 004°15'5 9.8
2018-Aug-06 23:00N 51°54' E 004°22'2 4.0
2018-Aug-06 22:28N 51°53' E 004°25'0 0.0
2018-Aug-06 21:58N 51°53' E 004°25'0 0.0
2018-Aug-06 21:28N 51°53' E 004°25'0 0.0
2018-Aug-06 20:58N 51°53' E 004°25'0 0.0
2018-Aug-06 20:28N 51°53' E 004°25'0 0.0
2018-Aug-06 19:58N 51°53' E 004°25'0 0.0
2018-Aug-06 19:28N 51°53' E 004°25'0 0.0
2018-Aug-06 18:58N 51°53' E 004°25'0 0.0
2018-Aug-06 18:28N 51°53' E 004°25'0 0.0
2018-Aug-06 17:58N 51°53' E 004°25'0 0.0
2018-Aug-06 17:28N 51°53' E 004°25'0 0.0
2018-Aug-06 16:58N 51°53' E 004°25'0 0.0
2018-Aug-06 16:28N 51°53' E 004°25'0 0.0
2018-Aug-06 15:58N 51°53' E 004°25'0 0.0
2018-Aug-06 15:28N 51°53' E 004°25'0 0.0
2018-Aug-06 14:58N 51°53' E 004°25'0 0.0
2018-Aug-06 14:28N 51°53' E 004°25'0 0.0
2018-Aug-06 13:58N 51°53' E 004°25'0 0.0
2018-Aug-06 13:28N 51°53' E 004°25'0 0.0
2018-Aug-06 12:58N 51°53' E 004°25'0 0.0
2018-Aug-06 12:28N 51°53' E 004°25'0 0.0
2018-Aug-06 11:58N 51°53' E 004°25'0 0.0
2018-Aug-06 11:28N 51°53' E 004°25'0 0.0
2018-Aug-06 10:58N 51°53' E 004°25'0 0.0
2018-Aug-06 10:28N 51°53' E 004°25'0 0.0
2018-Aug-06 09:58N 51°53' E 004°25'0 0.0
2018-Aug-06 09:25N 51°53' E 004°25'0 0.0
2018-Aug-06 08:58N 51°53' E 004°25'0 0.0
2018-Aug-06 08:28N 51°53' E 004°25'0 0.0
2018-Aug-06 07:58N 51°53' E 004°25'0 0.0
2018-Aug-06 07:28N 51°53' E 004°25'0 0.0
2018-Aug-06 06:58N 51°53' E 004°25'  
Track history (hours):
 
Tides and Currents Weather Stations Pressure Air Temp Water Temp Dewpoint Dewpoint Depression Visibility Wind Speed Wind Dir Waves Ship Positions

Neuburg

Last reported at 2018-Aug-16 06:36 UTC. Time now 2018-Aug-16 20:19 UTC.
Position N 46°48' W 004°57'.

Length 142 m; draft 7.6 m.

Type: Cargo ship. MMSI: 212740000.

Date/timePositionNaut miles runAvg speedWind from/ knotsBaromVisibWave heightAir tempDewpointWater temp
2018-Aug-16 06:36N 46°48' W 004°57'142 9.0
2018-Aug-15 14:52N 49°10' W 005°08'711.6
2018-Aug-15 14:16N 49°13' W 004°59'6910.5
2018-Aug-15 07:43N 49°47' W 003°27'4 9.1
2018-Aug-15 07:16N 49°49' W 003°22'2 9.5
2018-Aug-15 07:00N 49°50' W 003°19'5 9.9
2018-Aug-15 06:31N 49°53' W 003°12'611.7
2018-Aug-15 06:00N 49°56' W 003°04'917.6
2018-Aug-15 05:30N 49°59' W 002°52'918.4
2018-Aug-15 05:00N 50°02' W 002°38'11616.0
2018-Aug-14 21:44N 50°34' E 000°17'314.3
2018-Aug-14 21:30N 50°35' E 000°22'715.0
2018-Aug-14 21:00N 50°37' E 000°33'816.0
2018-Aug-14 20:30N 50°42' E 000°43'816.9
2018-Aug-14 20:00N 50°47' E 000°54'917.0
2018-Aug-14 19:31N 50°52' E 001°04'816.8
2018-Aug-14 19:01N 50°58' E 001°15'816.0
2018-Aug-14 18:30N 51°03' E 001°24'815.3
2018-Aug-14 18:00N 51°08' E 001°33'714.4
2018-Aug-14 17:31N 51°12' E 001°42'714.2
2018-Aug-14 17:00N 51°18' E 001°49'714.0
2018-Aug-14 16:30N 51°24' E 001°54'713.9
2018-Aug-14 16:01N 51°29' E 002°02'714.1
2018-Aug-14 15:30N 51°35' E 002°09'714.2
2018-Aug-14 14:59N 51°40' E 002°18'4314.6
2018-Aug-14 12:00N 52°03' E 003°17'916.7
2018-Aug-14 11:29N 52°04' E 003°31'816.8
2018-Aug-14 11:01N 52°03' E 003°44'713.8
2018-Aug-14 10:30N 52°01' E 003°55'816.0
2018-Aug-14 10:00N 51°58' E 004°07'1111.1
2018-Aug-14 09:01N 51°54' E 004°24'1 2.5
2018-Aug-14 08:29N 51°53' E 004°25'0 0.0
2018-Aug-14 07:59N 51°53' E 004°25'0 0.0
2018-Aug-14 07:29N 51°53' E 004°25'0 0.0
2018-Aug-14 06:59N 51°53' E 004°25'0 0.0
2018-Aug-14 06:29N 51°53' E 004°25'0 0.0
2018-Aug-14 05:59N 51°53' E 004°25'0 0.0
2018-Aug-14 05:29N 51°53' E 004°25'0 0.0
2018-Aug-14 04:59N 51°53' E 004°25'0 0.0
2018-Aug-14 04:29N 51°53' E 004°25'0 0.0
2018-Aug-14 03:56N 51°53' E 004°25'0 0.0
2018-Aug-14 03:29N 51°53' E 004°25'0 0.0
2018-Aug-14 02:59N 51°53' E 004°25'0 0.0
2018-Aug-14 02:29N 51°53' E 004°25'0 0.0
2018-Aug-14 01:59N 51°53' E 004°25'0 0.0
2018-Aug-14 01:29N 51°53' E 004°25'0 0.0
2018-Aug-14 00:58N 51°53' E 004°25'0 0.0
2018-Aug-14 00:28N 51°53' E 004°25'0 0.0
2018-Aug-13 23:58N 51°53' E 004°25'0 0.0
2018-Aug-13 23:28N 51°53' E 004°25'0 0.0
2018-Aug-13 22:58N 51°53' E 004°25'0 0.0
2018-Aug-13 22:28N 51°53' E 004°25'0 0.0
2018-Aug-13 21:58N 51°53' E 004°25'0 0.0
2018-Aug-13 21:28N 51°53' E 004°25'0 0.0
2018-Aug-13 20:58N 51°53' E 004°25'0 0.0
2018-Aug-13 20:28N 51°53' E 004°25'0 0.0
2018-Aug-13 19:58N 51°53' E 004°25'0 0.0
2018-Aug-13 19:28N 51°53' E 004°25'0 0.0
2018-Aug-13 18:58N 51°53' E 004°25'0 0.0
2018-Aug-13 18:28N 51°53' E 004°25'0 0.0
2018-Aug-13 17:58N 51°53' E 004°25'0 0.0
2018-Aug-13 17:28N 51°53' E 004°25'0 0.0
2018-Aug-13 16:58N 51°53' E 004°25'0 0.0
2018-Aug-13 16:28N 51°53' E 004°25'0 0.0
2018-Aug-13 15:58N 51°53' E 004°25'0 0.0
2018-Aug-13 15:28N 51°53' E 004°25'0 0.0
2018-Aug-13 14:58N 51°53' E 004°25'0 0.0
2018-Aug-13 14:28N 51°53' E 004°25'0 0.0
2018-Aug-13 13:58N 51°53' E 004°25'0 0.0
2018-Aug-13 13:28N 51°53' E 004°25'0 0.0
2018-Aug-13 12:58N 51°53' E 004°25'0 0.0
2018-Aug-13 12:28N 51°53' E 004°25'0 0.0
2018-Aug-13 11:58N 51°53' E 004°25'0 0.0
2018-Aug-13 11:28N 51°53' E 004°25'0 0.0
2018-Aug-13 10:58N 51°53' E 004°25'0 0.0
2018-Aug-13 10:28N 51°53' E 004°25'0 0.0
2018-Aug-13 09:58N 51°53' E 004°25'0 0.0
2018-Aug-13 09:28N 51°53' E 004°25'0 0.0
2018-Aug-13 08:58N 51°53' E 004°25'0 0.0
2018-Aug-13 08:28N 51°53' E 004°25'0 0.0
2018-Aug-13 07:58N 51°53' E 004°25'0 0.0
2018-Aug-13 07:28N 51°53' E 004°25'0 0.0
2018-Aug-13 06:58N 51°53' E 004°25'0 0.0
2018-Aug-13 06:28N 51°53' E 004°25'0 0.0
2018-Aug-13 05:58N 51°53' E 004°25'0 0.0
2018-Aug-13 05:30N 51°53' E 004°25'1 2.2
2018-Aug-13 05:00N 51°53' E 004°24'4 7.7
2018-Aug-13 04:30N 51°54' E 004°18'511.0
2018-Aug-13 04:00N 51°57' E 004°11'713.3
2018-Aug-13 03:30N 51°60' E 004°01'917.9
2018-Aug-13 03:00N 51°60' E 003°46'4 7.4
2018-Aug-13 02:30N 51°58' E 003°41'714.1
2018-Aug-13 01:59N 51°56' E 003°29'1015.2
2018-Aug-13 01:22N 51°54' E 003°14'615.0
2018-Aug-13 00:58N 51°53' E 003°05'2014.1
2018-Aug-12 23:32N 51°52' E 002°32'113.7
2018-Aug-12 23:30N 51°52' E 002°32'713.6
2018-Aug-12 22:59N 51°49' E 002°21'714.0
2018-Aug-12 22:30N 51°45' E 002°12'713.8
2018-Aug-12 22:01N 51°41' E 002°04'714.0
2018-Aug-12 21:31N 51°36' E 001°55'713.9
2018-Aug-12 21:01N 51°32' E 001°46'713.6
2018-Aug-12 20:30N 51°29' E 001°37'611.6
2018-Aug-12 20:01N 51°25' E 001°29'714.2
2018-Aug-12 19:30N 51°29' E 001°19'815.6
2018-Aug-12 19:00N 51°29' E 001°07'816.0
2018-Aug-12 18:30N 51°29' E 000°54'917.7
2018-Aug-12 18:00N 51°30' E 000°40'816.0
2018-Aug-12 17:31N 51°28' E 000°27'5 9.2
2018-Aug-12 17:00N 51°27' E 000°20'0 0.3
2018-Aug-12 16:30N 51°27' E 000°20'0 0.0
2018-Aug-12 16:01N 51°27' E 000°20'0 0.0
2018-Aug-12 15:31N 51°27' E 000°20'0 0.0
2018-Aug-12 15:00N 51°27' E 000°20'0 0.0
2018-Aug-12 14:30N 51°27' E 000°20'0 0.0
2018-Aug-12 14:00N 51°27' E 000°20'0 0.0
2018-Aug-12 13:30N 51°27' E 000°20'0 0.0
2018-Aug-12 13:00N 51°27' E 000°20'0 0.0
2018-Aug-12 12:31N 51°27' E 000°20'0 0.0
2018-Aug-12 12:00N 51°27' E 000°20'0 0.0
2018-Aug-12 11:30N 51°27' E 000°20'0 0.0
2018-Aug-12 11:00N 51°27' E 000°20'0 0.0
2018-Aug-12 10:30N 51°27' E 000°20'0 0.0
2018-Aug-12 10:01N 51°27' E 000°20'0 0.0
2018-Aug-12 09:31N 51°27' E 000°20'0 0.0
2018-Aug-12 09:01N 51°27' E 000°20'0 0.0
2018-Aug-12 08:30N 51°27' E 000°20'0 0.0
2018-Aug-12 08:00N 51°27' E 000°20'0 0.0
2018-Aug-12 07:30N 51°27' E 000°20'0 0.0
2018-Aug-12 07:00N 51°27' E 000°20'0 0.0
2018-Aug-12 06:30N 51°27' E 000°20'0 0.3
2018-Aug-12 06:00N 51°27' E 000°20'3 5.8
2018-Aug-12 05:30N 51°27' E 000°25'4 8.3
2018-Aug-12 05:01N 51°30' E 000°29'5 9.9
2018-Aug-12 04:30N 51°30' E 000°37'611.4
2018-Aug-12 04:00N 51°29' E 000°46'713.1
2018-Aug-12 03:30N 51°29' E 000°57'612.3
2018-Aug-12 03:00N 51°30' E 001°07'612.4
2018-Aug-12 02:30N 51°29' E 001°17'714.9
2018-Aug-12 02:01N 51°28' E 001°28'510.8
2018-Aug-12 01:31N 51°23' E 001°34'611.7
2018-Aug-12 01:00N 51°18' E 001°38'713.4
2018-Aug-12 00:30N 51°12' E 001°40'611.7
2018-Aug-12 00:00N 51°06' E 001°40'714.6
2018-Aug-11 23:30N 50°60' E 001°33'714.5
2018-Aug-11 23:00N 50°53' E 001°27'5513.2
2018-Aug-11 18:50N 50°23' E 000°16'515.1
2018-Aug-11 18:30N 50°21' E 000°08'714.6
2018-Aug-11 18:00N 50°18' W 000°02'714.3
2018-Aug-11 17:30N 50°16' W 000°13'20415.0
2018-Aug-11 03:57N 48°59' W 005°05'4017.4
2018-Aug-11 01:38N 48°30' W 005°47'30416.6
2018-Aug-10 07:22N 43°44' W 003°19'616.7
2018-Aug-10 07:00N 43°39' W 003°15'816.4
2018-Aug-10 06:30N 43°31' W 003°11'816.5
2018-Aug-10 06:01N 43°24' W 003°06'4 7.9
2018-Aug-10 05:30N 43°21' W 003°03'0 0.0
2018-Aug-10 04:49N 43°21' W 003°03'0 0.0
2018-Aug-10 04:28N 43°21' W 003°03'0 0.0
2018-Aug-10 03:55N 43°21' W 003°03'0 0.0
2018-Aug-10 03:25N 43°21' W 003°03'0 0.0
2018-Aug-10 02:55N 43°21' W 003°03'0 0.0
2018-Aug-10 02:13N 43°21' W 003°03'0 0.0
2018-Aug-10 01:58N 43°21' W 003°03'0 0.0
2018-Aug-10 01:28N 43°21' W 003°03'0 0.0
2018-Aug-10 01:00N 43°21' W 003°03'0 0.0
2018-Aug-10 00:30N 43°21' W 003°03'0 0.0
2018-Aug-10 00:00N 43°21' W 003°03'0 0.0
2018-Aug-09 23:30N 43°21' W 003°03'0 0.0
2018-Aug-09 23:00N 43°21' W 003°03'0 0.0
2018-Aug-09 22:27N 43°21' W 003°03'0 0.0
2018-Aug-09 22:00N 43°21' W 003°03'0 0.0
2018-Aug-09 21:30N 43°21' W 003°03'0 0.0
2018-Aug-09 21:00N 43°21' W 003°03'0 0.0
2018-Aug-09 20:21N 43°21' W 003°03'0 0.0
2018-Aug-09 20:00N 43°21' W 003°03'0 0.0
2018-Aug-09 19:30N 43°21' W 003°03'0 0.0
2018-Aug-09 19:00N 43°21' W 003°03'0 0.0
2018-Aug-09 18:30N 43°21' W 003°03'0 0.0
2018-Aug-09 18:00N 43°21' W 003°03'0 0.0
2018-Aug-09 17:24N 43°21' W 003°03'0 0.0
2018-Aug-09 16:51N 43°21' W 003°03'0 0.0
2018-Aug-09 16:27N 43°21' W 003°03'0 0.0
2018-Aug-09 15:48N 43°21' W 003°03'0 0.0
2018-Aug-09 15:18N 43°21' W 003°03'0 0.0
2018-Aug-09 15:00N 43°21' W 003°03'0 0.0
2018-Aug-09 14:30N 43°21' W 003°03'0 0.0
2018-Aug-09 14:00N 43°21' W 003°03'0 0.0
2018-Aug-09 13:29N 43°21' W 003°03'0 0.0
2018-Aug-09 12:59N 43°21' W 003°03'0 0.0
2018-Aug-09 12:29N 43°21' W 003°03'0 0.0
2018-Aug-09 11:59N 43°21' W 003°03'0 0.0
2018-Aug-09 11:29N 43°21' W 003°03'0 0.0
2018-Aug-09 10:59N 43°21' W 003°03'0 0.0
2018-Aug-09 10:29N 43°21' W 003°03'0 0.0
2018-Aug-09 09:59N 43°21' W 003°03'0 0.0
2018-Aug-09 09:26N 43°21' W 003°03'0 0.0
2018-Aug-09 08:56N 43°21' W 003°03'0 0.0
2018-Aug-09 08:29N 43°21' W 003°03'0 0.0
2018-Aug-09 07:59N 43°21' W 003°03'0 0.0
2018-Aug-09 07:29N 43°21' W 003°03'0 0.0
2018-Aug-09 06:56N 43°21' W 003°03'0 0.0
2018-Aug-09 06:29N 43°21' W 003°03'0 0.0
2018-Aug-09 05:59N 43°21' W 003°03'0 0.0
2018-Aug-09 05:29N 43°21' W 003°03'0 0.0
2018-Aug-09 04:59N 43°21' W 003°03'0 0.0
2018-Aug-09 04:29N 43°21' W 003°03'0 0.0
2018-Aug-09 03:50N 43°21' W 003°03'0 0.8
2018-Aug-09 03:30N 43°21' W 003°03'3 5.8
2018-Aug-09 03:00N 43°23' W 003°05'815.2
2018-Aug-09 02:30N 43°30' W 003°09'816.6
2018-Aug-09 02:00N 43°38' W 003°13'36212.7
2018-Aug-07 21:28N 49°40' W 003°47'1616.9
2018-Aug-07 20:31N 49°48' W 003°26'117.0
2018-Aug-07 20:28N 49°48' W 003°25'816.8
2018-Aug-07 20:00N 49°52' W 003°14'816.6
2018-Aug-07 19:30N 49°56' W 003°03'816.1
2018-Aug-07 19:01N 50°00' W 002°53'815.4
2018-Aug-07 18:30N 50°02' W 002°41'4214.5
2018-Aug-07 15:38N 50°13' W 001°38'214.0
2018-Aug-07 15:28N 50°14' W 001°35'714.1
2018-Aug-07 15:00N 50°15' W 001°25'714.2
2018-Aug-07 14:30N 50°17' W 001°14'815.0
2018-Aug-07 14:00N 50°19' W 001°03'816.0
2018-Aug-07 13:30N 50°22' W 000°51'816.8
2018-Aug-07 13:00N 50°24' W 000°38'916.9
2018-Aug-07 12:30N 50°27' W 000°26'917.3
2018-Aug-07 12:00N 50°30' W 000°13'917.3
2018-Aug-07 11:30N 50°32' E 000°00'917.6
2018-Aug-07 11:00N 50°34' E 000°14'917.8
2018-Aug-07 10:30N 50°36' E 000°28'917.1
2018-Aug-07 10:00N 50°40' E 000°40'817.0
2018-Aug-07 09:30N 50°45' E 000°50'816.4
2018-Aug-07 09:00N 50°49' E 001°01'816.0
2018-Aug-07 08:30N 50°55' E 001°10'815.4
2018-Aug-07 08:00N 51°00' E 001°19'715.0
2018-Aug-07 07:30N 51°05' E 001°28'714.1
2018-Aug-07 07:00N 51°09' E 001°38'815.2
2018-Aug-07 06:30N 51°14' E 001°46'816.1
2018-Aug-07 06:00N 51°21' E 001°52'816.6
2018-Aug-07 05:30N 51°28' E 001°59'917.2
2018-Aug-07 05:01N 51°35' E 002°09'917.6
2018-Aug-07 04:30N 51°41' E 002°19'917.9
2018-Aug-07 04:00N 51°47' E 002°29'917.7
2018-Aug-07 03:30N 51°54' E 002°39'917.8
2018-Aug-07 03:00N 52°00' E 002°49'816.8
2018-Aug-07 02:30N 52°02' E 003°02'917.3
2018-Aug-07 02:00N 52°03' E 003°16'817.0
2018-Aug-07 01:30N 52°03' E 003°30'816.7
2018-Aug-07 01:00N 52°03' E 003°43'714.2
2018-Aug-07 00:30N 52°03' E 003°55'714.9
2018-Aug-07 00:00N 51°59' E 004°05'714.1
2018-Aug-06 23:30N 51°55' E 004°15'5 9.8
2018-Aug-06 23:00N 51°54' E 004°22'2 4.0
2018-Aug-06 22:28N 51°53' E 004°25'0 0.0
2018-Aug-06 21:58N 51°53' E 004°25'0 0.0
2018-Aug-06 21:28N 51°53' E 004°25'0 0.0
2018-Aug-06 20:58N 51°53' E 004°25'0 0.0
2018-Aug-06 20:28N 51°53' E 004°25'0 0.0
2018-Aug-06 19:58N 51°53' E 004°25'0 0.0
2018-Aug-06 19:28N 51°53' E 004°25'0 0.0
2018-Aug-06 18:58N 51°53' E 004°25'0 0.0
2018-Aug-06 18:28N 51°53' E 004°25'0 0.0
2018-Aug-06 17:58N 51°53' E 004°25'0 0.0
2018-Aug-06 17:28N 51°53' E 004°25'0 0.0
2018-Aug-06 16:58N 51°53' E 004°25'0 0.0
2018-Aug-06 16:28N 51°53' E 004°25'0 0.0
2018-Aug-06 15:58N 51°53' E 004°25'0 0.0
2018-Aug-06 15:28N 51°53' E 004°25'0 0.0
2018-Aug-06 14:58N 51°53' E 004°25'0 0.0
2018-Aug-06 14:28N 51°53' E 004°25'0 0.0
2018-Aug-06 13:58N 51°53' E 004°25'0 0.0
2018-Aug-06 13:28N 51°53' E 004°25'0 0.0
2018-Aug-06 12:58N 51°53' E 004°25'0 0.0
2018-Aug-06 12:28N 51°53' E 004°25'0 0.0
2018-Aug-06 11:58N 51°53' E 004°25'0 0.0
2018-Aug-06 11:28N 51°53' E 004°25'0 0.0
2018-Aug-06 10:58N 51°53' E 004°25'0 0.0
2018-Aug-06 10:28N 51°53' E 004°25'0 0.0
2018-Aug-06 09:58N 51°53' E 004°25'0 0.0
2018-Aug-06 09:25N 51°53' E 004°25'0 0.0
2018-Aug-06 08:58N 51°53' E 004°25'0 0.0
2018-Aug-06 08:28N 51°53' E 004°25'0 0.0
2018-Aug-06 07:58N 51°53' E 004°25'0 0.0
2018-Aug-06 07:28N 51°53' E 004°25'0 0.0
2018-Aug-06 06:58N 51°53' E 004°25'  

Dump ship's entire track history